| time (UTC) | temp F | wind direction | speed MPH | gust MPH | rain 1hr in | rain 24hr in | rain mn in | humidity % | barometer mb |
| 20260504221056 | 74 | 230 | 7.0 | 12.0 | 0.00 | 0.00 | 0.00 | 40 | 1009.6 |
| 20260504220554 | 74 | 184 | 8.0 | 14.0 | 0.00 | 0.00 | 0.00 | 39 | 1009.6 |
| 20260504220054 | 74 | 210 | 9.0 | 19.0 | 0.00 | 0.00 | 0.00 | 39 | 1009.6 |
| 20260504215554 | 74 | 212 | 8.0 | 17.0 | 0.00 | 0.00 | 0.00 | 37 | 1009.7 |
| 20260504215054 | 75 | 189 | 7.0 | 13.0 | 0.00 | 0.00 | 0.00 | 37 | 1009.6 |
| 20260504214554 | 75 | 192 | 6.0 | 17.0 | 0.00 | 0.00 | 0.00 | 37 | 1009.6 |
| 20260504214054 | 75 | 180 | 7.0 | 13.0 | 0.00 | 0.00 | 0.00 | 39 | 1009.7 |
| 20260504213554 | 75 | 207 | 7.0 | 15.0 | 0.00 | 0.00 | 0.00 | 37 | 1009.7 |
| 20260504213056 | 75 | 195 | 7.0 | 15.0 | 0.00 | 0.00 | 0.00 | 37 | 1009.7 |
| 20260504212554 | 75 | 196 | 9.0 | 17.0 | 0.00 | 0.00 | 0.00 | 36 | 1009.6 |
| 20260504212054 | 75 | 170 | 8.0 | 20.0 | 0.00 | 0.00 | 0.00 | 36 | 1009.5 |
| 20260504211554 | 75 | 203 | 8.0 | 14.0 | 0.00 | 0.00 | 0.00 | 37 | 1009.6 |
| 20260504211054 | 75 | 200 | 8.0 | 20.0 | 0.00 | 0.00 | 0.00 | 36 | 1009.5 |
| 20260504210554 | 75 | 189 | 7.0 | 15.0 | 0.00 | 0.00 | 0.00 | 37 | 1009.5 |
| 20260504210054 | 76 | 214 | 6.0 | 18.0 | 0.00 | 0.00 | 0.00 | 35 | 1009.5 |
| 20260504205554 | 77 | 197 | 5.0 | 17.0 | 0.00 | 0.00 | 0.00 | 36 | 1009.6 |
| 20260504205056 | 76 | 224 | 6.0 | 13.0 | 0.00 | 0.00 | 0.00 | 38 | 1009.5 |
| 20260504204554 | 75 | 210 | 8.0 | 16.0 | 0.00 | 0.00 | 0.00 | 35 | 1009.5 |
| 20260504204054 | 75 | 202 | 7.0 | 17.0 | 0.00 | 0.00 | 0.00 | 37 | 1009.7 |
| 20260504203554 | 75 | 175 | 7.0 | 16.0 | 0.00 | 0.00 | 0.00 | 37 | 1009.6 |
| 20260504203054 | 75 | 250 | 8.0 | 21.0 | 0.00 | 0.00 | 0.00 | 36 | 1009.8 |
| 20260504202554 | 75 | 184 | 8.0 | 15.0 | 0.00 | 0.00 | 0.00 | 37 | 1009.7 |
| 20260504202054 | 75 | 202 | 7.0 | 17.0 | 0.00 | 0.00 | 0.00 | 35 | 1009.8 |
| 20260504201554 | 75 | 197 | 6.0 | 13.0 | 0.00 | 0.00 | 0.00 | 36 | 1009.9 |
| 20260504201056 | 76 | 207 | 6.0 | 14.0 | 0.00 | 0.00 | 0.00 | 34 | 1009.9 |
| 20260504200554 | 76 | 192 | 7.0 | 16.0 | 0.00 | 0.00 | 0.00 | 34 | 1009.9 |
| 20260504200054 | 77 | 194 | 7.0 | 14.0 | 0.00 | 0.00 | 0.00 | 34 | 1009.8 |
| 20260504195554 | 78 | 184 | 4.0 | 15.0 | 0.00 | 0.00 | 0.00 | 33 | 1009.8 |
| 20260504195054 | 77 | 173 | 4.0 | 9.0 | 0.00 | 0.00 | 0.00 | 35 | 1009.9 |
| 20260504194554 | 76 | 281 | 8.0 | 14.0 | 0.00 | 0.00 | 0.00 | 35 | 1010.0 |
| 20260504194054 | 76 | 176 | 9.0 | 17.0 | 0.00 | 0.00 | 0.00 | 34 | 1010.1 |
| 20260504193554 | 77 | 214 | 8.0 | 17.0 | 0.00 | 0.00 | 0.00 | 34 | 1010.1 |
| 20260504193056 | 76 | 186 | 6.0 | 15.0 | 0.00 | 0.00 | 0.00 | 33 | 1010.2 |
| 20260504192554 | 76 | 214 | 5.0 | 8.0 | 0.00 | 0.00 | 0.00 | 33 | 1010.4 |
| 20260504192054 | 76 | 232 | 5.0 | 19.0 | 0.00 | 0.00 | 0.00 | 34 | 1010.5 |
| 20260504191554 | 77 | 189 | 4.0 | 10.0 | 0.00 | 0.00 | 0.00 | 32 | 1010.4 |
| 20260504191056 | 77 | 228 | 6.0 | 11.0 | 0.00 | 0.00 | 0.00 | 36 | 1010.6 |
| 20260504190554 | 76 | 189 | 8.0 | 14.0 | 0.00 | 0.00 | 0.00 | 35 | 1010.5 |
| 20260504190054 | 76 | 190 | 7.0 | 18.0 | 0.00 | 0.00 | 0.00 | 33 | 1010.8 |
| 20260504185554 | 76 | 173 | 6.0 | 14.0 | 0.00 | 0.00 | 0.00 | 34 | 1010.8 |
| 20260504185054 | 76 | 188 | 7.0 | 14.0 | 0.00 | 0.00 | 0.00 | 35 | 1010.9 |
| 20260504184555 | 75 | 196 | 7.0 | 13.0 | 0.00 | 0.00 | 0.00 | 33 | 1011.0 |
| 20260504184054 | 76 | 195 | 5.0 | 14.0 | 0.00 | 0.00 | 0.00 | 36 | 1011.0 |
| 20260504183554 | 75 | 229 | 6.0 | 11.0 | 0.00 | 0.00 | 0.00 | 37 | 1011.1 |
| 20260504183056 | 75 | 219 | 5.0 | 15.0 | 0.00 | 0.00 | 0.00 | 32 | 1011.2 |
| 20260504182554 | 75 | 161 | 4.0 | 14.0 | 0.00 | 0.00 | 0.00 | 35 | 1011.3 |
| 20260504182054 | 75 | 186 | 6.0 | 10.0 | 0.00 | 0.00 | 0.00 | 37 | 1011.3 |
| 20260504181556 | 75 | 271 | 8.0 | 15.0 | 0.00 | 0.00 | 0.00 | 34 | 1011.4 |
| 20260504181054 | 75 | 211 | 8.0 | 17.0 | 0.00 | 0.00 | 0.00 | 36 | 1011.5 |
| 20260504180554 | 75 | 160 | 7.0 | 18.0 | 0.00 | 0.00 | 0.00 | 35 | 1011.7 |
| 20260504180054 | 74 | 181 | 5.0 | 11.0 | 0.00 | 0.00 | 0.00 | 35 | 1011.7 |
| 20260504175554 | 74 | 188 | 5.0 | 15.0 | 0.00 | 0.00 | 0.00 | 35 | 1011.9 |
| 20260504175056 | 74 | 223 | 5.0 | 11.0 | 0.00 | 0.00 | 0.00 | 35 | 1011.9 |
| 20260504174554 | 74 | 225 | 5.0 | 13.0 | 0.00 | 0.00 | 0.00 | 36 | 1012.0 |
| 20260504174054 | 74 | 196 | 4.0 | 14.0 | 0.00 | 0.00 | 0.00 | 36 | 1011.8 |
| 20260504173554 | 73 | 264 | 4.0 | 11.0 | 0.00 | 0.00 | 0.00 | 34 | 1012.1 |
| 20260504173054 | 74 | 278 | 4.0 | 8.0 | 0.00 | 0.00 | 0.00 | 35 | 1012.2 |
| 20260504172554 | 75 | 234 | 4.0 | 13.0 | 0.00 | 0.00 | 0.00 | 36 | 1012.3 |
| 20260504172054 | 73 | 169 | 5.0 | 9.0 | 0.00 | 0.00 | 0.00 | 38 | 1012.3 |
| 20260504171554 | 73 | 202 | 6.0 | 14.0 | 0.00 | 0.00 | 0.00 | 33 | 1012.5 |
| 20260504171056 | 74 | 167 | 5.0 | 12.0 | 0.00 | 0.00 | 0.00 | 35 | 1012.4 |
| 20260504170554 | 73 | 209 | 5.0 | 13.0 | 0.00 | 0.00 | 0.00 | 35 | 1012.5 |
| 20260504151056 | 68 | 201 | 4.0 | 12.0 | 0.00 | 0.00 | 0.00 | 42 | 1014.0 |
| 20260504150554 | 67 | 242 | 4.0 | 10.0 | 0.00 | 0.00 | 0.00 | 41 | 1014.0 |
| 20260504141056 | 63 | 180 | 4.0 | 10.0 | 0.00 | 0.00 | 0.00 | 49 | 1014.4 |
| 20260504140554 | 63 | 194 | 4.0 | 9.0 | 0.00 | 0.00 | 0.00 | 50 | 1014.5 |
| 20260504130555 | 55 | 233 | 4.0 | 8.0 | 0.00 | 0.00 | 0.00 | 62 | 1014.8 |
| 20260504110555 | 43 | 347 | 0.0 | 0.0 | 0.00 | 0.00 | 0.00 | 86 | 1015.5 |
| 20260504100555 | 42 | 347 | 0.0 | 2.0 | 0.00 | 0.00 | 0.00 | 84 | 1015.2 |
| 20260504081555 | 44 | 173 | 0.0 | 2.0 | 0.00 | 0.00 | 0.00 | 81 | 1015.5 |
| 20260504081055 | 44 | 317 | 1.0 | 1.0 | 0.00 | 0.00 | 0.00 | 81 | 1015.5 |
| 20260504080555 | 44 | 317 | 0.0 | 1.0 | 0.00 | 0.00 | 0.00 | 81 | 1015.4 |
| 20260504050555 | 44 | 22 | 0.0 | 1.0 | 0.00 | 0.00 | 0.00 | 79 | 1015.8 |
| 20260504045555 | 44 | 22 | 0.0 | 0.0 | 0.00 | 0.00 | 0.00 | 77 | 1015.7 |
| 20260504045055 | 44 | 22 | 0.0 | 0.0 | 0.00 | 0.00 | 0.00 | 77 | 1015.7 |
| 20260504044555 | 44 | 22 | 0.0 | 1.0 | 0.00 | 0.00 | 0.00 | 77 | 1015.7 |
| 20260504044055 | 44 | 22 | 0.0 | 2.0 | 0.00 | 0.00 | 0.00 | 77 | 1015.8 |
| 20260504043555 | 44 | 22 | 1.0 | 0.0 | 0.00 | 0.00 | 0.00 | 77 | 1015.7 |
| 20260504043057 | 43 | 22 | 1.0 | 2.0 | 0.00 | 0.00 | 0.00 | 78 | 1015.7 |
| 20260504042555 | 43 | 22 | 1.0 | 1.0 | 0.00 | 0.00 | 0.00 | 77 | 1015.7 |
| 20260504042055 | 43 | 22 | 1.0 | 2.0 | 0.00 | 0.00 | 0.00 | 76 | 1015.6 |
| 20260504041555 | 43 | 22 | 0.0 | 1.0 | 0.00 | 0.00 | 0.00 | 77 | 1015.8 |
| 20260504041055 | 43 | 22 | 1.0 | 2.0 | 0.00 | 0.00 | 0.00 | 78 | 1015.7 |
| 20260504040555 | 43 | 22 | 1.0 | 1.0 | 0.00 | 0.00 | 0.00 | 78 | 1015.7 |
| 20260504040055 | 43 | 22 | 0.0 | 1.0 | 0.00 | 0.00 | 0.00 | 78 | 1015.6 |
| 20260504035555 | 43 | 22 | 0.0 | 1.0 | 0.00 | 0.00 | 0.00 | 76 | 1015.6 |
| 20260504035057 | 42 | 22 | 1.0 | 1.0 | 0.00 | 0.00 | 0.00 | 76 | 1015.6 |
| 20260504034555 | 43 | 22 | 1.0 | 1.0 | 0.00 | 0.00 | 0.00 | 76 | 1015.7 |
| 20260504034055 | 42 | 22 | 1.0 | 1.0 | 0.00 | 0.00 | 0.00 | 75 | 1015.6 |
| 20260504033555 | 42 | 22 | 1.0 | 2.0 | 0.00 | 0.00 | 0.00 | 74 | 1015.6 |
| 20260504033057 | 42 | 22 | 1.0 | 2.0 | 0.00 | 0.00 | 0.00 | 73 | 1015.7 |
| 20260504032555 | 42 | 22 | 1.0 | 2.0 | 0.00 | 0.00 | 0.00 | 71 | 1015.8 |
| 20260504032055 | 42 | 22 | 1.0 | 1.0 | 0.00 | 0.00 | 0.00 | 70 | 1015.8 |
| 20260504031555 | 43 | 22 | 1.0 | 2.0 | 0.00 | 0.00 | 0.00 | 66 | 1015.8 |
| 20260504031055 | 43 | 22 | 1.0 | 2.0 | 0.00 | 0.00 | 0.00 | 65 | 1015.7 |
| 20260504030555 | 43 | 172 | 1.0 | 1.0 | 0.00 | 0.00 | 0.00 | 65 | 1015.7 |
| 20260504030055 | 43 | 172 | 0.0 | 2.0 | 0.00 | 0.00 | 0.00 | 67 | 1015.8 |
| 20260504025555 | 43 | 172 | 0.0 | 2.0 | 0.00 | 0.00 | 0.00 | 68 | 1015.7 |
| 20260504025057 | 43 | 172 | 0.0 | 0.0 | 0.00 | 0.00 | 0.00 | 68 | 1015.7 |
| 20260504024555 | 43 | 172 | 0.0 | 0.0 | 0.00 | 0.00 | 0.00 | 68 | 1015.7 |
| 20260504024055 | 43 | 172 | 0.0 | 0.0 | 0.00 | 0.00 | 0.00 | 68 | 1015.6 |
| 20260504023555 | 43 | 172 | 0.0 | 0.0 | 0.00 | 0.00 | 0.00 | 69 | 1015.7 |
| 20260504023055 | 43 | 172 | 0.0 | 0.0 | 0.00 | 0.00 | 0.00 | 70 | 1015.7 |
| 20260504022555 | 43 | 172 | 0.0 | 0.0 | 0.00 | 0.00 | 0.00 | 69 | 1015.6 |
| 20260504022055 | 44 | 172 | 0.0 | 0.0 | 0.00 | 0.00 | 0.00 | 69 | 1015.5 |
| 20260504021555 | 43 | 172 | 0.0 | 0.0 | 0.00 | 0.00 | 0.00 | 68 | 1015.6 |
| 20260504021057 | 43 | 172 | 0.0 | 0.0 | 0.00 | 0.00 | 0.00 | 67 | 1015.6 |
| 20260504020555 | 43 | 172 | 0.0 | 0.0 | 0.00 | 0.00 | 0.00 | 68 | 1015.6 |
| 20260504020055 | 44 | 172 | 0.0 | 0.0 | 0.00 | 0.00 | 0.00 | 67 | 1015.5 |
| 20260504015555 | 43 | 172 | 0.0 | 0.0 | 0.00 | 0.00 | 0.00 | 69 | 1015.4 |
| 20260504015055 | 43 | 172 | 0.0 | 0.0 | 0.00 | 0.00 | 0.00 | 68 | 1015.4 |
| 20260504014555 | 43 | 172 | 0.0 | 0.0 | 0.00 | 0.00 | 0.00 | 69 | 1015.4 |
| 20260504014055 | 43 | 172 | 0.0 | 2.0 | 0.00 | 0.00 | 0.00 | 67 | 1015.3 |
| 20260504013555 | 44 | 172 | 1.0 | 0.0 | 0.00 | 0.00 | 0.00 | 65 | 1015.4 |
| 20260504013057 | 44 | 172 | 1.0 | 5.0 | 0.00 | 0.00 | 0.00 | 66 | 1015.3 |
| 20260504012555 | 44 | 173 | 0.0 | 5.0 | 0.00 | 0.00 | 0.00 | 65 | 1015.2 |
| 20260504012055 | 45 | 5 | 0.0 | 0.0 | 0.00 | 0.00 | 0.00 | 62 | 1015.2 |
| 20260504011555 | 46 | 5 | 0.0 | 0.0 | 0.00 | 0.00 | 0.00 | 63 | 1015.0 |
| 20260504011055 | 46 | 5 | 0.0 | 0.0 | 0.00 | 0.00 | 0.00 | 62 | 1014.9 |
| 20260504010555 | 46 | 5 | 0.0 | 0.0 | 0.00 | 0.00 | 0.00 | 63 | 1014.9 |
| 20260504010055 | 46 | 5 | 0.0 | 0.0 | 0.00 | 0.00 | 0.00 | 61 | 1014.8 |
| 20260504005555 | 47 | 5 | 0.0 | 0.0 | 0.00 | 0.00 | 0.00 | 60 | 1014.8 |
| 20260504005057 | 47 | 5 | 0.0 | 0.0 | 0.00 | 0.00 | 0.00 | 60 | 1014.9 |
| 20260504004555 | 47 | 5 | 0.0 | 0.0 | 0.00 | 0.00 | 0.00 | 61 | 1014.7 |
| 20260504004055 | 47 | 5 | 0.0 | 0.0 | 0.00 | 0.00 | 0.00 | 62 | 1014.7 |
| 20260504003556 | 47 | 5 | 0.0 | 0.0 | 0.00 | 0.00 | 0.00 | 60 | 1014.7 |
| 20260504003055 | 48 | 5 | 0.0 | 1.0 | 0.00 | 0.00 | 0.00 | 58 | 1014.6 |
| 20260504002555 | 49 | 5 | 0.0 | 2.0 | 0.00 | 0.00 | 0.00 | 54 | 1014.5 |
| 20260504002055 | 50 | 5 | 0.0 | 2.0 | 0.00 | 0.00 | 0.00 | 54 | 1014.6 |
| 20260504001555 | 50 | 5 | 0.0 | 2.0 | 0.00 | 0.00 | 0.00 | 54 | 1014.5 |
| 20260504001057 | 51 | 5 | 0.0 | 0.0 | 0.00 | 0.00 | 0.00 | 53 | 1014.5 |
| 20260504000555 | 51 | 5 | 0.0 | 0.0 | 0.00 | 0.00 | 0.00 | 52 | 1014.6 |
| 20260504000055 | 52 | 5 | 0.0 | 1.0 | 0.00 | 0.00 | 0.00 | 48 | 1014.5 |
| 20260503235555 | 53 | 5 | 0.0 | 2.0 | 0.00 | 0.00 | 0.00 | 46 | 1014.5 |
| 20260503235055 | 54 | 5 | 1.0 | 2.0 | 0.00 | 0.00 | 0.00 | 43 | 1014.5 |
| 20260503234555 | 55 | 5 | 0.0 | 3.0 | 0.00 | 0.00 | 0.00 | 40 | 1014.5 |
| 20260503234055 | 56 | 304 | 0.0 | 2.0 | 0.00 | 0.00 | 0.00 | 40 | 1014.4 |
| 20260503233555 | 57 | 263 | 0.0 | 0.0 | 0.00 | 0.00 | 0.00 | 40 | 1014.3 |
| 20260503233057 | 57 | 263 | 0.0 | 0.0 | 0.00 | 0.00 | 0.00 | 35 | 1014.4 |
| 20260503232556 | 58 | 263 | 0.0 | 2.0 | 0.00 | 0.00 | 0.00 | 40 | 1014.4 |
| 20260503232055 | 58 | 263 | 0.0 | 2.0 | 0.00 | 0.00 | 0.00 | 37 | 1014.4 |
| 20260503231556 | 59 | 263 | 1.0 | 2.0 | 0.00 | 0.00 | 0.00 | 33 | 1014.3 |
| 20260503231055 | 59 | 261 | 1.0 | 4.0 | 0.00 | 0.00 | 0.00 | 34 | 1014.2 |
| 20260503230555 | 59 | 269 | 1.0 | 4.0 | 0.00 | 0.00 | 0.00 | 34 | 1014.2 |
| 20260503230055 | 59 | 242 | 1.0 | 4.0 | 0.00 | 0.00 | 0.00 | 33 | 1014.3 |
| 20260503225556 | 59 | 275 | 1.0 | 4.0 | 0.00 | 0.00 | 0.00 | 33 | 1014.2 |
| 20260503225056 | 60 | 315 | 1.0 | 2.0 | 0.00 | 0.00 | 0.00 | 32 | 1014.2 |
| 20260503224555 | 61 | 250 | 2.0 | 4.0 | 0.00 | 0.00 | 0.00 | 29 | 1014.1 |
| 20260503224056 | 61 | 291 | 2.0 | 6.0 | 0.00 | 0.00 | 0.00 | 30 | 1014.2 |
| 20260503223556 | 62 | 269 | 1.0 | 4.0 | 0.00 | 0.00 | 0.00 | 30 | 1014.3 |
| 20260503223056 | 63 | 329 | 2.0 | 4.0 | 0.00 | 0.00 | 0.00 | 30 | 1014.3 |
| 20260503222556 | 62 | 279 | 2.0 | 6.0 | 0.00 | 0.00 | 0.00 | 32 | 1014.4 |
| 20260503222056 | 62 | 249 | 3.0 | 10.0 | 0.00 | 0.00 | 0.00 | 29 | 1014.2 |
| 20260503221556 | 62 | 329 | 2.0 | 8.0 | 0.00 | 0.00 | 0.00 | 31 | 1014.4 |